createdAt,value
2022-11-03T00:02:00.358Z,99745.72
2022-11-03T00:04:27.471Z,99749.22
2022-11-03T00:06:55.495Z,99747.53
2022-11-03T00:09:24.055Z,99750.16
2022-11-03T00:11:52.063Z,99750.09
2022-11-03T00:14:19.951Z,99745.66
2022-11-03T00:16:47.501Z,99750.00
2022-11-03T00:19:17.313Z,99745.50
2022-11-03T00:21:45.478Z,99744.44
2022-11-03T00:24:13.480Z,99738.19
2022-11-03T00:26:40.705Z,99736.28
2022-11-03T00:29:13.248Z,99734.38
2022-11-03T00:31:42.349Z,99725.41
2022-11-03T00:34:09.997Z,99720.91
2022-11-03T00:36:45.000Z,99723.44
2022-11-03T00:39:12.819Z,99724.31
2022-11-03T00:41:40.549Z,99720.69
2022-11-03T00:44:08.520Z,99723.25
2022-11-03T00:46:35.823Z,99732.03
2022-11-03T00:49:04.602Z,99724.06
2022-11-03T00:51:31.982Z,99729.22
2022-11-03T00:54:01.202Z,99724.88
2022-11-03T00:56:37.192Z,99728.31
2022-11-03T00:59:06.178Z,99731.81
2022-11-03T01:01:46.540Z,99733.53
2022-11-03T01:04:34.087Z,99730.88
2022-11-03T01:07:01.874Z,99725.53
2022-11-03T01:09:31.964Z,99719.34
2022-11-03T01:12:14.986Z,99719.25
2022-11-03T01:14:43.240Z,99723.69
2022-11-03T01:17:12.937Z,99730.88
2022-11-03T01:19:40.174Z,99723.81
2022-11-03T01:22:10.692Z,99725.53
2022-11-03T01:24:42.447Z,99726.31
2022-11-03T01:27:11.437Z,99724.53
2022-11-03T01:29:38.365Z,99722.00
2022-11-03T01:32:05.608Z,99723.69
2022-11-03T01:34:32.689Z,99725.47
2022-11-03T01:36:59.602Z,99723.69
2022-11-03T01:39:26.785Z,99722.00
2022-11-03T01:41:54.375Z,99719.34
2022-11-03T01:44:40.058Z,99707.47
2022-11-03T01:47:29.787Z,99714.38
2022-11-03T01:50:08.467Z,99713.53
2022-11-03T01:52:45.003Z,99713.59
2022-11-03T01:55:25.080Z,99721.47
2022-11-03T01:58:01.412Z,99711.78
2022-11-03T02:00:28.993Z,99706.44
2022-11-03T02:02:56.515Z,99700.19
2022-11-03T02:05:26.431Z,99709.75
2022-11-03T02:08:06.091Z,99711.53
2022-11-03T02:10:33.930Z,99711.47
2022-11-03T02:13:03.137Z,99712.31
2022-11-03T02:15:31.701Z,99699.97
2022-11-03T02:17:59.977Z,99705.13
2022-11-03T02:20:32.064Z,99709.44
2022-11-03T02:23:17.380Z,99709.38
2022-11-03T02:25:53.532Z,99708.38
2022-11-03T02:28:24.084Z,99703.03
2022-11-03T02:31:00.205Z,99702.94
2022-11-03T02:33:58.206Z,99700.25
2022-11-03T02:36:51.193Z,99700.19
2022-11-03T02:39:32.195Z,99688.75
2022-11-03T02:42:03.440Z,99688.63
2022-11-03T02:44:34.219Z,99692.97
2022-11-03T02:47:05.402Z,99689.34
2022-11-03T02:49:32.535Z,99690.16
2022-11-03T02:52:04.766Z,99694.47
2022-11-03T02:54:44.583Z,99686.47
2022-11-03T02:57:21.545Z,99686.41
2022-11-03T02:59:59.058Z,99689.88
2022-11-03T06:04:21.447Z,99672.63
2022-11-03T06:06:53.301Z,99663.91
2022-11-03T06:09:25.561Z,99663.91
2022-11-03T06:11:56.455Z,99667.31
2022-11-03T06:14:28.498Z,99675.94
2022-11-03T06:17:07.708Z,99668.88
2022-11-03T06:19:48.312Z,99675.72
2022-11-03T06:22:29.511Z,99671.22
2022-11-03T06:25:01.760Z,99669.41
2022-11-03T06:27:34.504Z,99670.25
2022-11-03T06:30:29.868Z,99677.16
2022-11-03T06:33:25.602Z,99678.94
2022-11-03T06:35:55.912Z,99677.03
2022-11-03T06:38:26.248Z,99677.22
2022-11-03T06:40:54.274Z,99687.91
2022-11-03T06:43:45.404Z,99687.06
2022-11-03T06:46:21.151Z,99688.63
2022-11-03T06:48:48.718Z,99685.81
2022-11-03T06:51:23.077Z,99689.09
2022-11-03T06:53:52.687Z,99693.25
2022-11-03T06:56:22.682Z,99687.38
2022-11-03T06:58:56.365Z,99691.06
2022-11-03T07:01:27.267Z,99692.38
2022-11-03T07:04:01.432Z,99692.28
2022-11-03T07:06:37.570Z,99693.47
2022-11-03T07:09:09.956Z,99687.78
2022-11-03T07:12:09.217Z,99683.56
2022-11-03T07:14:37.275Z,99688.94
2022-11-03T07:17:07.226Z,99692.13
2022-11-03T07:19:42.637Z,99690.09
2022-11-03T07:22:26.098Z,99696.19
2022-11-03T07:24:57.057Z,99698.34
2022-11-03T07:27:28.412Z,99692.09
2022-11-03T07:30:06.028Z,99690.38
2022-11-03T07:32:34.485Z,99690.72
2022-11-03T07:35:26.509Z,99699.31
2022-11-03T07:37:55.610Z,99698.06
2022-11-03T07:40:25.417Z,99692.91
2022-11-03T07:42:58.399Z,99703.38
2022-11-03T07:45:37.887Z,99702.97
2022-11-03T07:48:26.734Z,99695.31
2022-11-03T07:50:56.694Z,99693.03
2022-11-03T07:53:40.110Z,99690.06
2022-11-03T07:56:25.761Z,99693.50
2022-11-03T07:59:00.272Z,99694.00
2022-11-03T08:01:31.376Z,99690.81
2022-11-03T08:04:05.981Z,99691.50
2022-11-03T08:06:33.664Z,99672.22
2022-11-03T08:09:00.973Z,99679.53
2022-11-03T08:11:29.682Z,99666.84
2022-11-03T08:13:57.681Z,99672.06
2022-11-03T08:16:25.359Z,99667.47
2022-11-03T08:18:52.543Z,99674.03
2022-11-03T08:21:19.914Z,99664.06
2022-11-03T08:23:47.810Z,99681.47
2022-11-03T08:26:15.851Z,99670.09
2022-11-03T08:28:43.268Z,99672.16
2022-11-03T08:31:12.853Z,99673.22
2022-11-03T08:33:40.983Z,99673.38
2022-11-03T08:36:09.737Z,99672.69
2022-11-03T08:38:37.838Z,99671.38
2022-11-03T08:41:05.615Z,99666.63
2022-11-03T08:43:32.783Z,99667.16
2022-11-03T08:46:08.233Z,99662.09
2022-11-03T08:48:40.414Z,99659.09
2022-11-03T08:51:10.330Z,99661.13
2022-11-03T08:53:38.900Z,99663.41
2022-11-03T08:56:10.429Z,99657.31
2022-11-03T08:58:40.135Z,99652.16
2022-11-03T09:01:08.183Z,99655.22
2022-11-03T09:03:35.864Z,99658.22
2022-11-03T09:06:03.211Z,99655.78
2022-11-03T09:11:17.858Z,99645.91
2022-11-03T09:13:45.497Z,99652.13
2022-11-03T09:16:12.995Z,99657.69
2022-11-03T09:18:40.660Z,99648.69
2022-11-03T09:21:08.933Z,99648.63
2022-11-03T09:23:36.081Z,99651.22
2022-11-03T09:26:03.494Z,99653.25
2022-11-03T09:28:30.731Z,99664.28
2022-11-03T09:30:58.161Z,99665.53
2022-11-03T09:33:25.557Z,99662.94
2022-11-03T09:35:53.048Z,99667.31
2022-11-03T09:38:20.411Z,99665.66
2022-11-03T09:43:16.434Z,99658.34
2022-11-03T09:45:43.668Z,99663.78
2022-11-03T09:48:12.514Z,99660.22
2022-11-03T09:50:40.622Z,99676.41
2022-11-03T09:53:12.348Z,99676.31
2022-11-03T09:55:39.871Z,99675.13
2022-11-03T09:58:15.021Z,99681.31
2022-11-03T10:00:42.459Z,99670.16
2022-11-03T10:03:20.548Z,99666.72
2022-11-03T10:05:48.441Z,99675.72
2022-11-03T10:08:27.631Z,99680.03
2022-11-03T10:10:55.196Z,99681.03
2022-11-03T10:13:28.641Z,99677.47
2022-11-03T10:15:57.108Z,99672.16
2022-11-03T10:18:24.623Z,99666.59
2022-11-03T10:20:52.155Z,99674.88
2022-11-03T10:23:19.422Z,99669.44
2022-11-03T13:59:51.496Z,99681.50
2022-11-03T14:05:07.236Z,99675.25
2022-11-03T14:07:36.615Z,99688.75
2022-11-03T14:10:04.641Z,99707.47
2022-11-03T14:12:32.276Z,99708.41
2022-11-03T14:15:00.408Z,99707.84
2022-11-03T14:17:27.721Z,99706.19
2022-11-03T14:19:59.164Z,99700.47
2022-11-03T14:22:33.356Z,99712.38
2022-11-03T14:25:01.470Z,99712.81
2022-11-03T14:27:28.906Z,99714.94
2022-11-03T14:29:56.327Z,99725.13
2022-11-03T14:32:23.659Z,99729.31
2022-11-03T14:34:50.992Z,99731.69
2022-11-03T14:37:18.192Z,99721.66
2022-11-03T14:39:45.597Z,99734.56
2022-11-03T14:42:17.249Z,99723.91
2022-11-03T14:44:46.399Z,99722.78
2022-11-03T14:47:18.089Z,99727.81
2022-11-03T14:49:46.689Z,99732.44
2022-11-03T14:52:14.782Z,99732.44
2022-11-03T14:54:42.482Z,99736.59
2022-11-03T14:57:10.037Z,99741.00
2022-11-03T14:59:37.690Z,99748.75
2022-11-03T15:02:06.279Z,99745.44
2022-11-03T15:04:34.131Z,99750.38
2022-11-03T15:07:01.457Z,99748.41
2022-11-03T15:09:28.883Z,99751.00
2022-11-03T15:11:56.017Z,99744.56
2022-11-03T15:14:23.365Z,99751.78
2022-11-03T15:16:50.632Z,99747.34
2022-11-03T15:19:17.990Z,99751.53
2022-11-03T15:21:44.927Z,99760.38
2022-11-03T15:26:59.546Z,99751.31
2022-11-03T15:29:26.795Z,99758.38
2022-11-03T15:31:53.956Z,99758.38
2022-11-03T15:34:20.854Z,99760.91
2022-11-03T15:36:48.062Z,99761.66
2022-11-03T15:39:16.402Z,99756.34
2022-11-03T15:41:43.745Z,99764.19
2022-11-03T15:44:10.687Z,99767.84
2022-11-03T15:46:38.092Z,99759.91
2022-11-03T15:49:05.367Z,99771.22
2022-11-03T15:51:32.714Z,99773.94
2022-11-03T15:53:59.820Z,99766.72
2022-11-03T15:56:27.687Z,99766.78
2022-11-03T15:58:55.076Z,99770.44
2022-11-03T16:01:22.594Z,99772.13
2022-11-03T16:03:49.772Z,99767.84
2022-11-03T16:06:16.907Z,99780.09
2022-11-03T16:08:43.924Z,99774.13
2022-11-03T16:11:11.182Z,99775.47
2022-11-03T16:13:39.583Z,99771.75
2022-11-03T16:16:07.387Z,99770.25
2022-11-03T16:18:35.018Z,99772.91
2022-11-03T16:21:02.111Z,99776.66
2022-11-03T16:23:29.616Z,99771.50
2022-11-03T16:25:57.107Z,99775.09
2022-11-03T16:28:24.647Z,99769.00
2022-11-03T16:30:54.516Z,99777.00
2022-11-03T16:33:22.603Z,99781.41
2022-11-03T16:35:49.811Z,99784.78
2022-11-03T16:38:17.148Z,99786.66
2022-11-03T16:40:44.735Z,99775.28
2022-11-03T16:43:12.854Z,99773.59
2022-11-03T16:45:40.014Z,99777.06
2022-11-03T16:48:07.969Z,99783.16
2022-11-03T16:50:41.512Z,99781.41
2022-11-03T16:53:11.914Z,99777.84
2022-11-03T16:55:39.473Z,99784.78
2022-11-03T16:58:06.981Z,99787.38
2022-11-03T17:00:34.164Z,99789.16
2022-11-03T17:03:01.635Z,99784.59
2022-11-03T17:05:28.624Z,99791.56
2022-11-03T17:07:56.195Z,99787.19
2022-11-03T17:10:24.249Z,99787.13
2022-11-03T17:12:51.579Z,99786.31
2022-11-03T17:15:19.102Z,99784.66
2022-11-03T17:17:46.650Z,99784.94
2022-11-03T17:20:13.729Z,99785.66
2022-11-03T17:22:41.211Z,99787.44
2022-11-03T17:25:11.371Z,99780.50
2022-11-03T17:27:46.566Z,99779.72
2022-11-03T17:30:35.097Z,99788.38
2022-11-03T17:33:07.304Z,99774.56
2022-11-03T17:35:46.477Z,99776.28
2022-11-03T17:38:16.736Z,99777.19
2022-11-03T17:40:48.720Z,99783.28
2022-11-03T17:43:20.668Z,99777.28
2022-11-03T17:45:48.778Z,99771.19
2022-11-03T17:48:16.209Z,99770.28
2022-11-03T17:50:47.672Z,99767.88
2022-11-03T20:26:49.781Z,99767.91
2022-11-03T20:29:16.337Z,99760.50
2022-11-03T20:31:45.155Z,99764.41
2022-11-03T20:34:16.480Z,99762.91
2022-11-03T20:36:44.063Z,99769.34
2022-11-03T20:39:15.712Z,99775.69
2022-11-03T20:41:47.254Z,99775.06
2022-11-03T20:44:15.874Z,99780.53
2022-11-03T20:46:43.995Z,99771.22
2022-11-03T20:49:11.581Z,99767.25
2022-11-03T20:51:45.473Z,99775.41
2022-11-03T20:54:18.521Z,99774.31
2022-11-03T20:56:46.148Z,99776.34
2022-11-03T20:59:17.475Z,99771.56
2022-11-03T21:01:45.185Z,99773.97
2022-11-03T21:04:15.156Z,99775.47
2022-11-03T21:06:42.623Z,99776.25
2022-11-03T21:09:18.418Z,99766.47
2022-11-03T21:11:47.071Z,99772.44
2022-11-03T21:14:30.037Z,99767.97
2022-11-03T21:17:16.055Z,99767.91
2022-11-03T21:20:02.010Z,99761.59
2022-11-03T21:25:23.651Z,99753.50
2022-11-03T21:27:51.573Z,99756.31
2022-11-03T21:30:19.151Z,99755.03
2022-11-03T21:32:48.081Z,99758.78
2022-11-03T21:35:20.623Z,99743.63
2022-11-03T21:37:48.435Z,99751.63
2022-11-03T21:40:15.702Z,99749.19
2022-11-03T21:43:01.256Z,99737.75
2022-11-03T21:45:28.538Z,99737.88
2022-11-03T21:48:14.825Z,99740.50
2022-11-03T21:50:43.176Z,99740.63
2022-11-03T21:53:11.731Z,99738.88
2022-11-03T21:55:40.137Z,99734.50
2022-11-03T21:58:08.193Z,99739.25
2022-11-03T22:00:35.542Z,99736.53
2022-11-03T22:03:02.650Z,99733.16
2022-11-03T22:05:30.428Z,99735.81
2022-11-03T22:07:57.746Z,99741.94
2022-11-03T22:10:25.246Z,99728.84
2022-11-03T22:12:52.515Z,99731.38
2022-11-03T22:15:38.509Z,99726.16
2022-11-03T22:18:06.681Z,99734.63
2022-11-03T22:20:54.650Z,99727.53
2022-11-03T22:23:41.015Z,99732.16
2022-11-03T22:26:32.802Z,99736.34
2022-11-03T22:29:18.473Z,99732.16
2022-11-03T22:31:45.967Z,99728.25
2022-11-03T22:34:32.499Z,99728.78
2022-11-03T22:36:59.752Z,99734.06
2022-11-03T22:39:45.441Z,99727.19
2022-11-03T22:42:31.698Z,99725.34
2022-11-03T22:45:18.201Z,99722.03
2022-11-03T22:47:45.428Z,99724.69
2022-11-03T22:50:12.502Z,99719.53
2022-11-03T22:52:40.052Z,99725.06
2022-11-03T22:55:07.575Z,99720.84
2022-11-03T22:57:34.753Z,99708.94
2022-11-03T23:00:02.011Z,99714.72
2022-11-03T23:02:29.131Z,99711.69
2022-11-03T23:04:56.289Z,99718.38
2022-11-03T23:07:28.422Z,99716.41
2022-11-03T23:09:59.252Z,99724.50
2022-11-03T23:12:26.431Z,99716.81
2022-11-03T23:15:11.974Z,99722.09
2022-11-03T23:18:01.973Z,99724.78
2022-11-03T23:20:57.935Z,99722.94
2022-11-03T23:23:43.585Z,99723.63
2022-11-03T23:26:10.829Z,99719.03
2022-11-03T23:28:37.859Z,99730.22
2022-11-03T23:31:05.517Z,99725.72
2022-11-03T23:33:32.589Z,99731.63
2022-11-03T23:36:07.829Z,99728.75
2022-11-03T23:38:36.274Z,99731.16
2022-11-03T23:41:08.743Z,99732.69
2022-11-03T23:43:36.293Z,99731.66
2022-11-03T23:46:21.818Z,99737.69
2022-11-03T23:48:49.407Z,99734.88
2022-11-03T23:51:24.275Z,99743.34
2022-11-03T23:53:51.622Z,99743.47
2022-11-03T23:56:39.155Z,99737.22
2022-11-03T23:59:07.376Z,99739.66
